createdAt,value
2017-05-17T00:00:14.081Z,101202
2017-05-17T00:01:14.059Z,101192
2017-05-17T00:02:13.578Z,101196
2017-05-17T00:03:13.636Z,101197
2017-05-17T00:04:14.226Z,101199
2017-05-17T00:05:13.720Z,101198
2017-05-17T00:06:14.309Z,101195
2017-05-17T00:07:13.799Z,101192
2017-05-17T00:08:13.819Z,101195
2017-05-17T00:09:14.412Z,101196
2017-05-17T00:10:13.897Z,101191
2017-05-17T00:11:14.485Z,101194
2017-05-17T00:12:14.553Z,101189
2017-05-17T00:13:14.613Z,101194
2017-05-17T00:14:14.745Z,101182
2017-05-17T00:15:14.187Z,101179
2017-05-17T00:16:14.265Z,101186
2017-05-17T00:17:14.296Z,101187
2017-05-17T00:18:14.377Z,101183
2017-05-17T00:19:14.916Z,101188
2017-05-17T00:20:14.427Z,101177
2017-05-17T00:21:14.461Z,101184
2017-05-17T00:22:15.051Z,101184
2017-05-17T00:23:15.039Z,101181
2017-05-17T00:24:15.105Z,101188
2017-05-17T00:25:15.188Z,101177
2017-05-17T00:26:14.962Z,101183
2017-05-17T00:27:14.749Z,101181
2017-05-17T00:28:15.346Z,101182
2017-05-17T00:29:14.846Z,101180
2017-05-17T00:30:14.976Z,101182
2017-05-17T00:31:15.037Z,101176
2017-05-17T00:32:15.354Z,101174
2017-05-17T00:33:15.027Z,101177
2017-05-17T00:34:15.123Z,101175
2017-05-17T00:35:15.151Z,101175
2017-05-17T00:36:15.106Z,101172
2017-05-17T00:37:15.700Z,101177
2017-05-17T00:38:15.538Z,101177
2017-05-17T00:39:15.818Z,101171
2017-05-17T00:40:15.328Z,101168
2017-05-17T00:41:15.334Z,101169
2017-05-17T00:42:15.313Z,101172
2017-05-17T00:43:15.396Z,101168
2017-05-17T00:44:15.689Z,101168
2017-05-17T00:45:15.526Z,101169
2017-05-17T00:46:15.550Z,101173
2017-05-17T00:47:15.606Z,101161
2017-05-17T00:48:15.649Z,101169
2017-05-17T00:49:16.246Z,101165
2017-05-17T00:50:16.090Z,101163
2017-05-17T00:51:15.855Z,101161
2017-05-17T00:52:16.450Z,101172
2017-05-17T00:53:16.018Z,101157
2017-05-17T00:54:16.025Z,101162
2017-05-17T00:55:15.992Z,101158
2017-05-17T00:56:16.350Z,101158
2017-05-17T00:57:16.645Z,101157
2017-05-17T00:58:16.765Z,101159
2017-05-17T00:59:16.733Z,101151
2017-05-17T01:00:16.288Z,101154
2017-05-17T01:01:16.392Z,101154
2017-05-17T01:02:16.715Z,101151
2017-05-17T01:03:17.016Z,101151
2017-05-17T01:04:17.017Z,101150
2017-05-17T01:05:17.100Z,101151
2017-05-17T01:06:17.593Z,101148
2017-05-17T01:07:16.629Z,101149
2017-05-17T01:08:17.476Z,101148
2017-05-17T01:09:17.236Z,101140
2017-05-17T01:10:17.286Z,101147
2017-05-17T01:11:17.355Z,101143
2017-05-17T01:12:16.882Z,101146
2017-05-17T01:13:16.909Z,101143
2017-05-17T01:14:17.205Z,101135
2017-05-17T01:15:17.456Z,101138
2017-05-17T01:16:17.517Z,101136
2017-05-17T01:17:17.068Z,101136
2017-05-17T01:18:17.635Z,101126
2017-05-17T01:19:17.116Z,101133
2017-05-17T01:20:17.968Z,101133
2017-05-17T01:21:17.246Z,101132
2017-05-17T01:22:17.281Z,101135
2017-05-17T01:23:17.787Z,101122
2017-05-17T01:24:17.335Z,101123
2017-05-17T01:25:17.844Z,101130
2017-05-17T01:26:17.606Z,101128
2017-05-17T01:27:17.371Z,101124
2017-05-17T01:28:17.952Z,101128
2017-05-17T01:29:18.004Z,101130
2017-05-17T01:30:18.073Z,101125
2017-05-17T01:31:18.150Z,101132
2017-05-17T01:32:17.976Z,101129
2017-05-17T01:33:17.800Z,101129
2017-05-17T01:34:18.320Z,101124
2017-05-17T01:35:18.379Z,101129
2017-05-17T01:36:18.449Z,101126
2017-05-17T01:37:18.438Z,101118
2017-05-17T01:38:18.221Z,101124
2017-05-17T01:39:18.577Z,101124
2017-05-17T01:40:18.601Z,101124
2017-05-17T01:41:18.683Z,101122
2017-05-17T01:42:18.742Z,101124
2017-05-17T01:43:18.255Z,101126
2017-05-17T01:44:19.087Z,101123
2017-05-17T01:45:18.332Z,101119
2017-05-17T01:46:18.962Z,101120
2017-05-17T01:47:18.934Z,101120
2017-05-17T01:48:19.003Z,101119
2017-05-17T01:49:18.477Z,101117
2017-05-17T01:50:19.289Z,101116
2017-05-17T01:51:19.034Z,101110
2017-05-17T01:52:18.598Z,101118
2017-05-17T01:53:18.626Z,101117
2017-05-17T01:54:19.194Z,101116
2017-05-17T01:55:18.702Z,101115
2017-05-17T01:56:19.596Z,101115
2017-05-17T01:57:19.372Z,101116
2017-05-17T01:58:18.903Z,101114
2017-05-17T01:59:19.470Z,101112
2017-05-17T02:00:19.521Z,101109
2017-05-17T02:01:19.608Z,101112
2017-05-17T02:02:19.359Z,101103
2017-05-17T02:03:19.151Z,101109
2017-05-17T02:04:19.164Z,101107
2017-05-17T02:05:19.718Z,101108
2017-05-17T02:06:19.291Z,101105
2017-05-17T02:07:19.872Z,101105
2017-05-17T02:08:19.617Z,101102
2017-05-17T02:09:19.402Z,101097
2017-05-17T02:10:19.404Z,101098
2017-05-17T02:11:19.530Z,101101
2017-05-17T02:12:19.597Z,101095
2017-05-17T02:13:19.567Z,101099
2017-05-17T02:14:20.407Z,101101
2017-05-17T02:15:19.696Z,101097
2017-05-17T02:16:19.697Z,101103
2017-05-17T02:17:19.705Z,101093
2017-05-17T02:18:20.252Z,101100
2017-05-17T02:19:19.716Z,101098
2017-05-17T02:20:20.073Z,101098
2017-05-17T02:21:19.817Z,101095
2017-05-17T02:22:19.829Z,101096
2017-05-17T02:23:19.844Z,101094
2017-05-17T02:24:20.446Z,101091
2017-05-17T02:25:19.999Z,101093
2017-05-17T02:26:20.869Z,101096
2017-05-17T02:27:20.087Z,101092
2017-05-17T02:28:20.195Z,101095
2017-05-17T02:29:20.776Z,101091
2017-05-17T02:30:20.882Z,101082
2017-05-17T02:31:20.429Z,101091
2017-05-17T02:32:21.243Z,101087
2017-05-17T02:33:21.071Z,101089
2017-05-17T02:34:21.101Z,101086
2017-05-17T02:35:21.163Z,101088
2017-05-17T02:36:20.704Z,101086
2017-05-17T02:37:21.251Z,101083
2017-05-17T02:38:21.564Z,101083
2017-05-17T02:39:20.791Z,101083
2017-05-17T02:40:20.867Z,101081
2017-05-17T02:41:20.939Z,101081
2017-05-17T02:42:21.007Z,101079
2017-05-17T02:43:21.565Z,101072
2017-05-17T02:44:21.414Z,101078
2017-05-17T02:45:21.189Z,101077
2017-05-17T02:46:21.268Z,101081
2017-05-17T02:47:21.787Z,101076
2017-05-17T02:48:21.374Z,101077
2017-05-17T02:49:21.319Z,101070
2017-05-17T02:50:21.732Z,101078
2017-05-17T02:51:21.484Z,101073
2017-05-17T02:52:21.517Z,101068
2017-05-17T02:53:21.592Z,101070
2017-05-17T02:54:22.206Z,101072
2017-05-17T02:55:21.691Z,101071
2017-05-17T02:56:22.535Z,101065
2017-05-17T02:57:22.356Z,101071
2017-05-17T02:58:21.870Z,101068
2017-05-17T02:59:22.449Z,101070
2017-05-17T03:00:22.547Z,101071
2017-05-17T03:01:22.633Z,101072
2017-05-17T03:02:22.388Z,101072
2017-05-17T03:03:22.715Z,101074
2017-05-17T03:04:22.772Z,101071
2017-05-17T03:05:22.824Z,101075
2017-05-17T03:06:22.895Z,101069
2017-05-17T03:07:22.958Z,101066
2017-05-17T03:08:22.684Z,101066
2017-05-17T03:09:22.995Z,101069
2017-05-17T03:10:23.057Z,101067
2017-05-17T03:11:23.154Z,101063
2017-05-17T03:12:22.635Z,101063
2017-05-17T03:13:22.645Z,101064
2017-05-17T03:14:22.918Z,101053
2017-05-17T03:15:22.687Z,101065
2017-05-17T03:16:23.234Z,101056
2017-05-17T03:17:22.732Z,101060
2017-05-17T03:18:23.298Z,101061
2017-05-17T03:19:22.820Z,101056
2017-05-17T03:20:23.146Z,101058
2017-05-17T03:21:23.431Z,101061
2017-05-17T03:22:22.962Z,101057
2017-05-17T03:23:23.530Z,101054
2017-05-17T03:24:23.650Z,101054
2017-05-17T03:25:23.106Z,101052
2017-05-17T03:26:24.032Z,101042
2017-05-17T03:27:23.226Z,101049
2017-05-17T03:28:23.798Z,101050
2017-05-17T03:29:23.320Z,101051
2017-05-17T03:30:23.844Z,101048
2017-05-17T03:31:23.425Z,101046
2017-05-17T03:32:24.246Z,101046
2017-05-17T03:33:24.125Z,101047
2017-05-17T03:34:23.578Z,101048
2017-05-17T03:35:23.655Z,101047
2017-05-17T03:36:23.754Z,101046
2017-05-17T03:37:23.726Z,101044
2017-05-17T03:38:24.489Z,101050
2017-05-17T03:39:24.384Z,101037
2017-05-17T03:40:24.438Z,101043
2017-05-17T03:41:24.562Z,101045
2017-05-17T03:42:24.574Z,101045
2017-05-17T03:43:24.132Z,101044
2017-05-17T03:44:24.405Z,101042
2017-05-17T03:45:24.273Z,101046
2017-05-17T03:46:24.864Z,101043
2017-05-17T03:47:24.905Z,101037
2017-05-17T03:48:24.943Z,101035
2017-05-17T03:49:25.050Z,101040
2017-05-17T03:50:24.878Z,101043
2017-05-17T03:51:25.157Z,101043
2017-05-17T03:52:24.672Z,101039
2017-05-17T03:53:24.782Z,101044
2017-05-17T03:54:25.313Z,101041
2017-05-17T03:55:25.350Z,101038
2017-05-17T03:56:24.799Z,101047
2017-05-17T03:57:25.353Z,101046
2017-05-17T03:58:25.438Z,101046
2017-05-17T03:59:25.544Z,101045
2017-05-17T04:01:25.575Z,101038
2017-05-17T04:02:25.049Z,101045
2017-05-17T04:03:25.183Z,101046
2017-05-17T04:04:25.696Z,101049
2017-05-17T04:05:25.238Z,101045
2017-05-17T04:06:25.955Z,101042
2017-05-17T04:07:25.836Z,101045
2017-05-17T04:08:25.283Z,101049
2017-05-17T04:09:25.272Z,101047
2017-05-17T04:10:25.370Z,101048
2017-05-17T04:11:25.428Z,101048
2017-05-17T04:12:26.120Z,101042
2017-05-17T04:13:26.040Z,101046
2017-05-17T04:14:25.577Z,101046
2017-05-17T04:15:26.151Z,101048
2017-05-17T04:16:25.662Z,101050
2017-05-17T04:17:26.281Z,101044
2017-05-17T04:18:25.908Z,101044
2017-05-17T04:19:26.297Z,101048
2017-05-17T04:20:25.811Z,101041
2017-05-17T04:21:26.363Z,101044
2017-05-17T04:22:25.835Z,101041
2017-05-17T04:23:26.381Z,101039
2017-05-17T04:24:26.560Z,101042
2017-05-17T04:25:25.889Z,101041
2017-05-17T04:26:25.958Z,101041
2017-05-17T04:27:26.015Z,101042
2017-05-17T04:28:26.117Z,101029
2017-05-17T04:29:26.164Z,101040
2017-05-17T04:30:26.488Z,101039
2017-05-17T04:31:26.850Z,101037
2017-05-17T04:32:26.845Z,101033
2017-05-17T04:33:26.299Z,101032
2017-05-17T04:34:26.903Z,101033
2017-05-17T04:35:27.006Z,101035
2017-05-17T04:36:27.260Z,101035
2017-05-17T04:37:26.523Z,101036
2017-05-17T04:38:26.553Z,101034
2017-05-17T04:39:27.126Z,101033
2017-05-17T04:40:27.141Z,101033
2017-05-17T04:41:27.200Z,101028
2017-05-17T04:42:27.019Z,101030
2017-05-17T04:43:26.786Z,101032
2017-05-17T04:44:26.781Z,101029
2017-05-17T04:45:27.375Z,101038
2017-05-17T04:46:26.957Z,101031
2017-05-17T04:47:27.559Z,101035
2017-05-17T04:48:27.183Z,101038
2017-05-17T04:49:27.141Z,101037
2017-05-17T04:50:27.730Z,101040
2017-05-17T04:51:27.201Z,101035
2017-05-17T04:52:27.747Z,101040
2017-05-17T04:53:27.314Z,101038
2017-05-17T04:54:27.633Z,101044
2017-05-17T04:55:27.990Z,101039
2017-05-17T04:56:27.428Z,101036
2017-05-17T04:57:27.534Z,101034
2017-05-17T04:58:27.591Z,101037
2017-05-17T04:59:28.196Z,101036
2017-05-17T05:00:27.857Z,101041
2017-05-17T05:01:27.708Z,101033
2017-05-17T05:02:27.710Z,101040
2017-05-17T05:03:28.383Z,101041
2017-05-17T05:04:28.538Z,101038
2017-05-17T05:05:27.912Z,101034
2017-05-17T05:06:28.675Z,101031
2017-05-17T05:07:28.024Z,101036
2017-05-17T05:08:28.039Z,101030
2017-05-17T05:09:28.148Z,101036
2017-05-17T05:10:28.700Z,101027
2017-05-17T05:11:28.796Z,101028
2017-05-17T05:12:29.115Z,101023
2017-05-17T05:13:28.912Z,101028
2017-05-17T05:14:28.403Z,101026
2017-05-17T05:15:29.015Z,101017
2017-05-17T05:16:29.124Z,101029
2017-05-17T05:17:28.640Z,101025
2017-05-17T05:18:28.904Z,101026
2017-05-17T05:19:28.734Z,101027
2017-05-17T05:20:28.743Z,101024
2017-05-17T05:21:29.364Z,101019
2017-05-17T05:22:28.880Z,101025
2017-05-17T05:23:29.476Z,101024
2017-05-17T05:24:29.662Z,101020
2017-05-17T05:25:29.001Z,101024
2017-05-17T05:26:29.117Z,101016
2017-05-17T05:27:29.196Z,101021
2017-05-17T05:28:29.775Z,101020
2017-05-17T05:29:29.246Z,101023
2017-05-17T05:30:30.110Z,101022
2017-05-17T05:31:29.912Z,101018
2017-05-17T05:32:29.407Z,101021
2017-05-17T05:33:29.472Z,101014
2017-05-17T05:34:30.131Z,101023
2017-05-17T05:35:30.112Z,101021
2017-05-17T05:36:30.287Z,101021
2017-05-17T05:37:30.163Z,101015
2017-05-17T05:38:29.617Z,101025
2017-05-17T05:39:30.178Z,101026
2017-05-17T05:40:29.767Z,101022
2017-05-17T05:41:30.339Z,101015
2017-05-17T05:42:29.874Z,101016
2017-05-17T05:43:30.458Z,101021
2017-05-17T05:44:29.876Z,101019
2017-05-17T05:45:29.936Z,101020
2017-05-17T05:46:29.976Z,101014
2017-05-17T05:47:29.950Z,101018
2017-05-17T05:48:30.564Z,101011
2017-05-17T05:49:30.050Z,101020
2017-05-17T05:50:30.142Z,101016
2017-05-17T05:51:30.153Z,101008
2017-05-17T05:52:31.444Z,101016
2017-05-17T05:53:30.783Z,101015
2017-05-17T05:54:30.893Z,101016
2017-05-17T05:55:30.951Z,101011
2017-05-17T05:56:30.435Z,101012
2017-05-17T05:57:31.667Z,101008
2017-05-17T05:58:30.554Z,101008
2017-05-17T05:59:31.148Z,101010
2017-05-17T06:00:31.231Z,101012
2017-05-17T06:01:31.319Z,101012
2017-05-17T06:02:30.749Z,101008
2017-05-17T06:03:31.383Z,101008
2017-05-17T06:04:30.890Z,101000
2017-05-17T06:05:31.454Z,101009
2017-05-17T06:06:31.735Z,101001
2017-05-17T06:07:31.061Z,101008
2017-05-17T06:08:31.710Z,101004
2017-05-17T06:09:31.232Z,101006
2017-05-17T06:10:31.246Z,101001
2017-05-17T06:11:31.822Z,101004
2017-05-17T06:12:31.938Z,100996
2017-05-17T06:13:31.980Z,101001
2017-05-17T06:14:32.742Z,101002
2017-05-17T06:15:32.144Z,100999
2017-05-17T06:16:31.647Z,101005
2017-05-17T06:17:31.720Z,100998
2017-05-17T06:18:32.298Z,100992
2017-05-17T06:19:31.792Z,101000
2017-05-17T06:20:33.110Z,101001
2017-05-17T06:21:32.511Z,101004
2017-05-17T06:22:32.000Z,100998
2017-05-17T06:23:32.665Z,101002
2017-05-17T06:24:32.706Z,100997
2017-05-17T06:25:32.222Z,100999
2017-05-17T06:26:32.278Z,100992
2017-05-17T06:27:32.977Z,100989
2017-05-17T06:28:33.075Z,101003
2017-05-17T06:29:33.076Z,101001
2017-05-17T06:30:32.615Z,100996
2017-05-17T06:31:33.235Z,100991
2017-05-17T06:32:32.795Z,100995
2017-05-17T06:33:34.059Z,100997
2017-05-17T06:34:32.865Z,100990
2017-05-17T06:35:32.912Z,100988
2017-05-17T06:36:33.525Z,100988
2017-05-17T06:37:32.971Z,100990
2017-05-17T06:38:33.633Z,100985
2017-05-17T06:39:34.291Z,100990
2017-05-17T06:40:33.641Z,100980
2017-05-17T06:41:33.186Z,100995
2017-05-17T06:42:33.780Z,100988
2017-05-17T06:43:33.299Z,100986
2017-05-17T06:44:33.869Z,100991
2017-05-17T06:45:33.964Z,100984
2017-05-17T06:46:33.414Z,100986
2017-05-17T06:47:34.707Z,100975
2017-05-17T06:48:34.064Z,100983
2017-05-17T06:49:34.126Z,100988
2017-05-17T06:50:34.118Z,100988
2017-05-17T06:51:34.285Z,100982
2017-05-17T06:52:33.734Z,100982
2017-05-17T06:53:34.333Z,100977
2017-05-17T06:54:34.340Z,100976
2017-05-17T06:55:34.448Z,100983
2017-05-17T06:56:34.440Z,100981
2017-05-17T06:57:35.910Z,100984
2017-05-17T06:58:34.520Z,100973
2017-05-17T06:59:35.512Z,100978
2017-05-17T07:00:34.725Z,100977
2017-05-17T07:01:34.789Z,100981
2017-05-17T07:02:34.780Z,100970
2017-05-17T07:03:35.474Z,100975
2017-05-17T07:04:34.406Z,100979
2017-05-17T07:05:36.618Z,100981
2017-05-17T07:06:38.019Z,100981
2017-05-17T07:07:34.597Z,100975
2017-05-17T07:08:35.207Z,100976
2017-05-17T07:09:36.024Z,100978
2017-05-17T07:10:35.315Z,100967
2017-05-17T07:11:36.296Z,100976
2017-05-17T07:12:35.419Z,100973
2017-05-17T07:13:34.945Z,100972
2017-05-17T07:14:35.548Z,100970
2017-05-17T07:15:35.698Z,100968
2017-05-17T07:16:37.316Z,100967
2017-05-17T07:17:36.409Z,100960
2017-05-17T07:18:35.782Z,100965
2017-05-17T07:19:35.890Z,100969
2017-05-17T07:20:37.100Z,100967
2017-05-17T07:21:39.872Z,100966
2017-05-17T07:22:36.725Z,100962
2017-05-17T07:23:35.744Z,100965
2017-05-17T07:24:36.731Z,100961
2017-05-17T07:25:36.162Z,100963
2017-05-17T07:26:35.659Z,100958
2017-05-17T07:27:36.886Z,100955
2017-05-17T07:28:37.053Z,100960
2017-05-17T07:29:38.317Z,100964
2017-05-17T07:30:37.200Z,100963
2017-05-17T07:31:35.837Z,100967
2017-05-17T07:32:35.840Z,100961
2017-05-17T07:33:36.367Z,100955
2017-05-17T07:34:36.409Z,100949
2017-05-17T07:35:36.707Z,100956
2017-05-17T07:36:37.616Z,100952
2017-05-17T07:37:36.756Z,100955
2017-05-17T07:38:37.252Z,100955
2017-05-17T07:39:38.218Z,100954
2017-05-17T07:40:36.529Z,100953
2017-05-17T07:41:36.716Z,100956
2017-05-17T07:42:36.720Z,100953
2017-05-17T07:43:36.719Z,100954
2017-05-17T07:44:38.484Z,100954
2017-05-17T07:45:37.428Z,100951
2017-05-17T07:46:37.561Z,100946
2017-05-17T07:47:38.475Z,100944
2017-05-17T07:48:37.430Z,100951
2017-05-17T07:49:37.213Z,100945
2017-05-17T07:50:38.333Z,100943
2017-05-17T07:51:38.461Z,100938
2017-05-17T07:52:37.233Z,100931
2017-05-17T07:53:37.459Z,100937
2017-05-17T07:54:37.585Z,100932
2017-05-17T07:55:37.417Z,100934
2017-05-17T07:56:37.387Z,100938
2017-05-17T07:57:37.472Z,100938
2017-05-17T07:58:36.989Z,100931
2017-05-17T07:59:38.296Z,100923
2017-05-17T08:00:37.745Z,100930
2017-05-17T08:01:38.374Z,100932
2017-05-17T08:02:38.514Z,100930
2017-05-17T08:03:39.125Z,100928
2017-05-17T08:04:37.986Z,100925
2017-05-17T08:05:38.847Z,100920
2017-05-17T08:06:37.475Z,100920
2017-05-17T08:07:39.447Z,100922
2017-05-17T08:08:38.093Z,100911
2017-05-17T08:09:37.598Z,100917
2017-05-17T08:10:38.386Z,100919
2017-05-17T08:11:38.933Z,100913
2017-05-17T08:12:38.304Z,100919
2017-05-17T08:13:37.782Z,100917
2017-05-17T08:14:38.376Z,100913
2017-05-17T08:15:38.923Z,100907
2017-05-17T08:16:38.517Z,100911
2017-05-17T08:17:38.488Z,100907
2017-05-17T08:18:39.205Z,100905
2017-05-17T08:19:40.368Z,100909
2017-05-17T08:20:38.145Z,100908
2017-05-17T08:21:38.701Z,100906
2017-05-17T08:22:38.946Z,100904
2017-05-17T08:23:40.296Z,100906
2017-05-17T08:24:38.328Z,100904
2017-05-17T08:25:39.671Z,100893
2017-05-17T08:26:40.480Z,100903
2017-05-17T08:27:40.950Z,100899
2017-05-17T08:28:41.856Z,100904
2017-05-17T08:29:39.249Z,100900
2017-05-17T08:30:39.965Z,100904
2017-05-17T08:31:40.021Z,100898
2017-05-17T08:32:39.344Z,100895
2017-05-17T08:33:39.425Z,100895
2017-05-17T08:34:43.563Z,100895
2017-05-17T08:35:38.996Z,100888
2017-05-17T08:36:41.059Z,100889
2017-05-17T08:37:42.633Z,100888
2017-05-17T08:38:39.186Z,100889
2017-05-17T08:39:39.820Z,100889
2017-05-17T08:40:40.426Z,100893
2017-05-17T08:41:39.842Z,100886
2017-05-17T08:42:39.352Z,100884
2017-05-17T08:43:41.818Z,100890
2017-05-17T08:44:42.798Z,100882
2017-05-17T08:45:40.148Z,100876
2017-05-17T08:46:43.512Z,100881
2017-05-17T08:47:39.604Z,100867
2017-05-17T08:48:40.134Z,100877
2017-05-17T08:49:40.287Z,100871
2017-05-17T08:50:40.271Z,100875
2017-05-17T08:51:40.288Z,100877
2017-05-17T08:52:39.811Z,100872
2017-05-17T08:53:40.426Z,100877
2017-05-17T08:54:39.897Z,100869
2017-05-17T08:55:41.152Z,100870
2017-05-17T08:56:42.292Z,100862
2017-05-17T08:57:41.177Z,100860
2017-05-17T08:58:40.122Z,100860
2017-05-17T08:59:40.772Z,100860
2017-05-17T09:00:42.336Z,100857
2017-05-17T09:01:41.029Z,100856
2017-05-17T09:02:42.919Z,100859
2017-05-17T09:03:40.445Z,100855
2017-05-17T09:04:43.700Z,100850
2017-05-17T09:05:43.078Z,100854
2017-05-17T09:06:40.481Z,100849
2017-05-17T09:07:41.844Z,100844
2017-05-17T09:08:42.404Z,100849
2017-05-17T09:09:41.271Z,100849
2017-05-17T09:10:41.282Z,100845
2017-05-17T09:11:41.871Z,100849
2017-05-17T09:12:42.516Z,100848
2017-05-17T09:13:41.452Z,100843
2017-05-17T09:14:40.758Z,100849
2017-05-17T09:15:40.866Z,100847
2017-05-17T09:16:41.492Z,100849
2017-05-17T09:17:41.460Z,100842
2017-05-17T09:18:42.095Z,100838
2017-05-17T09:19:41.610Z,100840
2017-05-17T09:20:42.193Z,100848
2017-05-17T09:21:40.981Z,100840
2017-05-17T09:22:41.554Z,100842
2017-05-17T09:23:41.048Z,100835
2017-05-17T09:24:43.666Z,100835
2017-05-17T09:25:42.206Z,100832
2017-05-17T09:26:42.384Z,100829
2017-05-17T09:27:41.889Z,100831
2017-05-17T09:28:41.886Z,100827
2017-05-17T09:29:42.042Z,100833
2017-05-17T09:30:44.048Z,100823
2017-05-17T09:31:44.081Z,100822
2017-05-17T09:32:42.176Z,100821
2017-05-17T09:33:45.826Z,100817
2017-05-17T09:34:42.305Z,100829
2017-05-17T09:35:43.057Z,100815
2017-05-17T09:36:41.802Z,100815
2017-05-17T09:37:42.914Z,100811
2017-05-17T09:38:42.670Z,100811
2017-05-17T09:39:43.424Z,100807
2017-05-17T09:40:43.112Z,100810
2017-05-17T09:41:42.004Z,100806
2017-05-17T09:42:42.887Z,100803
2017-05-17T09:43:43.583Z,100804
2017-05-17T09:44:42.862Z,100804
2017-05-17T09:45:43.616Z,100796
2017-05-17T09:46:43.046Z,100794
2017-05-17T09:47:43.193Z,100783
2017-05-17T09:48:43.136Z,100781
2017-05-17T09:49:42.651Z,100779
2017-05-17T09:50:43.198Z,100782
2017-05-17T09:51:43.314Z,100784
2017-05-17T09:52:45.843Z,100782
2017-05-17T09:53:43.344Z,100771
2017-05-17T09:54:43.540Z,100779
2017-05-17T09:55:43.922Z,100773
2017-05-17T09:56:43.554Z,100783
2017-05-17T09:57:46.097Z,100774
2017-05-17T09:58:46.183Z,100777
2017-05-17T09:59:44.206Z,100777
2017-05-17T10:00:43.815Z,100776
2017-05-17T10:01:43.860Z,100766
2017-05-17T10:02:43.855Z,100768
2017-05-17T10:03:43.354Z,100772
2017-05-17T10:04:43.980Z,100765
2017-05-17T10:05:45.476Z,100767
2017-05-17T10:06:43.550Z,100761
2017-05-17T10:07:46.034Z,100763
2017-05-17T10:08:44.146Z,100760
2017-05-17T10:09:45.696Z,100754
2017-05-17T10:10:46.130Z,100751
2017-05-17T10:11:44.334Z,100756
2017-05-17T10:12:45.123Z,100755
2017-05-17T10:13:45.480Z,100752
2017-05-17T10:14:43.986Z,100746
2017-05-17T10:15:45.177Z,100742
2017-05-17T10:16:45.193Z,100732
2017-05-17T10:17:44.122Z,100730
2017-05-17T10:18:47.419Z,100730
2017-05-17T10:19:46.514Z,100728
2017-05-17T10:20:48.198Z,100733
2017-05-17T10:21:44.722Z,100731
2017-05-17T10:22:45.992Z,100733
2017-05-17T10:23:45.687Z,100732
2017-05-17T10:24:46.245Z,100724
2017-05-17T10:25:45.735Z,100726
2017-05-17T10:26:46.812Z,100723
2017-05-17T10:27:46.119Z,100722
2017-05-17T10:28:45.783Z,100723
2017-05-17T10:29:45.718Z,100730
2017-05-17T10:30:47.160Z,100720
2017-05-17T10:31:46.625Z,100713
2017-05-17T10:32:45.363Z,100711
2017-05-17T10:33:44.887Z,100720
2017-05-17T10:34:46.199Z,100717
2017-05-17T10:35:45.086Z,100712
2017-05-17T10:36:51.247Z,100704
2017-05-17T10:37:46.988Z,100716
2017-05-17T10:38:45.783Z,100711
2017-05-17T10:39:46.413Z,100709
2017-05-17T10:40:47.985Z,100708
2017-05-17T10:42:46.559Z,100703
2017-05-17T10:43:46.064Z,100695
2017-05-17T10:44:51.080Z,100700
2017-05-17T10:45:47.344Z,100691
2017-05-17T10:46:46.632Z,100695
2017-05-17T10:47:46.718Z,100697
2017-05-17T10:48:45.598Z,100690
2017-05-17T10:49:46.650Z,100694
2017-05-17T10:50:45.628Z,100692
2017-05-17T10:51:46.164Z,100689
2017-05-17T10:52:45.725Z,100680
2017-05-17T10:53:46.268Z,100682
2017-05-17T10:54:45.816Z,100684
2017-05-17T10:55:46.347Z,100677
2017-05-17T10:56:45.808Z,100673
2017-05-17T10:57:46.459Z,100679
2017-05-17T10:58:45.936Z,100670
2017-05-17T10:59:45.939Z,100671
2017-05-17T11:00:46.045Z,100666
2017-05-17T11:01:46.117Z,100662
2017-05-17T11:02:46.642Z,100655
2017-05-17T11:03:47.433Z,100660
2017-05-17T11:04:46.216Z,100654
2017-05-17T11:05:46.825Z,100653
2017-05-17T11:06:47.574Z,100659
2017-05-17T11:07:46.952Z,100654
2017-05-17T11:08:46.383Z,100649
2017-05-17T11:09:47.142Z,100637
2017-05-17T11:10:46.485Z,100640
2017-05-17T11:11:47.205Z,100643
2017-05-17T11:12:47.205Z,100644
2017-05-17T11:13:46.705Z,100644
2017-05-17T11:14:47.966Z,100652
2017-05-17T11:15:48.163Z,100642
2017-05-17T11:16:46.928Z,100644
2017-05-17T11:17:48.077Z,100657
2017-05-17T11:18:47.537Z,100645
2017-05-17T11:19:48.254Z,100653
2017-05-17T11:20:47.123Z,100644
2017-05-17T11:21:50.524Z,100641
2017-05-17T11:22:47.717Z,100641
2017-05-17T11:23:47.776Z,100649
2017-05-17T11:24:48.015Z,100629
2017-05-17T11:25:47.900Z,100622
2017-05-17T11:26:47.943Z,100627
2017-05-17T11:27:47.466Z,100638
2017-05-17T11:28:48.864Z,100623
2017-05-17T11:29:47.500Z,100619
2017-05-17T11:30:47.543Z,100625
2017-05-17T11:31:48.185Z,100616
2017-05-17T11:32:47.761Z,100618
2017-05-17T11:33:47.786Z,100618
2017-05-17T11:34:48.349Z,100628
2017-05-17T11:35:47.849Z,100619
2017-05-17T11:36:50.316Z,100613
2017-05-17T11:37:48.420Z,100609
2017-05-17T11:38:47.932Z,100609
2017-05-17T11:39:48.069Z,100609
2017-05-17T11:40:48.667Z,100604
2017-05-17T11:41:49.354Z,100598
2017-05-17T11:42:48.747Z,100597
2017-05-17T11:43:48.833Z,100591
2017-05-17T11:44:48.346Z,100589
2017-05-17T11:45:48.988Z,100601
2017-05-17T11:46:48.550Z,100588
2017-05-17T11:47:48.585Z,100593
2017-05-17T11:48:49.146Z,100598
2017-05-17T11:49:49.145Z,100585
2017-05-17T11:50:48.659Z,100592
2017-05-17T11:51:49.289Z,100584
2017-05-17T11:52:49.913Z,100587
2017-05-17T11:53:49.456Z,100584
2017-05-17T11:54:49.493Z,100577
2017-05-17T11:55:49.614Z,100578
2017-05-17T11:56:49.073Z,100586
2017-05-17T11:57:49.660Z,100581
2017-05-17T11:58:49.194Z,100576
2017-05-17T11:59:49.789Z,100576
2017-05-17T12:00:49.270Z,100565
2017-05-17T12:01:49.318Z,100578
2017-05-17T12:02:49.903Z,100577
2017-05-17T12:03:49.903Z,100572
2017-05-17T12:04:49.990Z,100569
2017-05-17T12:05:50.020Z,100571
2017-05-17T12:06:50.027Z,100570
2017-05-17T12:07:50.087Z,100572
2017-05-17T12:08:51.374Z,100577
2017-05-17T12:09:49.663Z,100568
2017-05-17T12:10:50.276Z,100561
2017-05-17T12:11:50.255Z,100555
2017-05-17T12:12:50.937Z,100568
2017-05-17T12:13:50.354Z,100566
2017-05-17T12:14:50.675Z,100567
2017-05-17T12:15:50.073Z,100564
2017-05-17T12:16:50.658Z,100560
2017-05-17T12:17:51.894Z,100553
2017-05-17T12:18:50.798Z,100551
2017-05-17T12:19:50.273Z,100551
2017-05-17T12:20:50.252Z,100554
2017-05-17T12:21:50.346Z,100560
2017-05-17T12:22:50.956Z,100556
2017-05-17T12:23:54.689Z,100548
2017-05-17T12:24:50.466Z,100555
2017-05-17T12:25:51.052Z,100555
2017-05-17T12:26:50.506Z,100550
2017-05-17T12:27:51.144Z,100545
2017-05-17T12:28:51.257Z,100547
2017-05-17T12:29:50.757Z,100544
2017-05-17T12:30:51.394Z,100545